sensor_id;sensor_type;location;lat;lon;timestamp;P1;durP1;ratioP1;P2;durP2;ratioP2
22634;SDS011;11484;50.858;4.384;2023-01-19T00:00:34;24.70;;;13.98;;
22634;SDS011;11484;50.858;4.384;2023-01-19T00:03:00;23.40;;;13.43;;
22634;SDS011;11484;50.858;4.384;2023-01-19T00:05:27;21.60;;;14.13;;
22634;SDS011;11484;50.858;4.384;2023-01-19T00:07:53;22.08;;;14.63;;
22634;SDS011;11484;50.858;4.384;2023-01-19T00:10:19;22.15;;;13.77;;
22634;SDS011;11484;50.858;4.384;2023-01-19T00:12:44;20.08;;;12.60;;
22634;SDS011;11484;50.858;4.384;2023-01-19T00:15:10;21.40;;;13.23;;
22634;SDS011;11484;50.858;4.384;2023-01-19T00:17:36;19.45;;;12.35;;
22634;SDS011;11484;50.858;4.384;2023-01-19T00:20:06;20.35;;;13.40;;
22634;SDS011;11484;50.858;4.384;2023-01-19T00:22:33;20.73;;;13.05;;
22634;SDS011;11484;50.858;4.384;2023-01-19T00:24:59;21.38;;;13.32;;
22634;SDS011;11484;50.858;4.384;2023-01-19T00:27:25;22.30;;;12.57;;
22634;SDS011;11484;50.858;4.384;2023-01-19T00:29:50;22.25;;;12.85;;
22634;SDS011;11484;50.858;4.384;2023-01-19T00:32:16;20.05;;;12.50;;
22634;SDS011;11484;50.858;4.384;2023-01-19T00:34:42;17.95;;;12.75;;
22634;SDS011;11484;50.858;4.384;2023-01-19T00:37:13;21.52;;;13.45;;
22634;SDS011;11484;50.858;4.384;2023-01-19T00:39:40;22.45;;;12.95;;
22634;SDS011;11484;50.858;4.384;2023-01-19T00:42:07;21.20;;;13.05;;
22634;SDS011;11484;50.858;4.384;2023-01-19T00:44:54;19.02;;;12.27;;
22634;SDS011;11484;50.858;4.384;2023-01-19T00:47:21;20.65;;;13.27;;
22634;SDS011;11484;50.858;4.384;2023-01-19T00:49:46;21.48;;;12.35;;
22634;SDS011;11484;50.858;4.384;2023-01-19T00:52:12;22.60;;;12.45;;
22634;SDS011;11484;50.858;4.384;2023-01-19T00:54:38;20.55;;;12.35;;
22634;SDS011;11484;50.858;4.384;2023-01-19T00:57:03;20.38;;;12.88;;
22634;SDS011;11484;50.858;4.384;2023-01-19T00:59:29;21.70;;;12.68;;
22634;SDS011;11484;50.858;4.384;2023-01-19T01:01:55;19.65;;;12.85;;
22634;SDS011;11484;50.858;4.384;2023-01-19T01:04:20;19.52;;;12.40;;
22634;SDS011;11484;50.858;4.384;2023-01-19T01:06:46;19.67;;;12.20;;
22634;SDS011;11484;50.858;4.384;2023-01-19T01:09:12;21.23;;;13.50;;
22634;SDS011;11484;50.858;4.384;2023-01-19T01:11:38;19.13;;;11.82;;
22634;SDS011;11484;50.858;4.384;2023-01-19T01:14:07;21.67;;;12.48;;
22634;SDS011;11484;50.858;4.384;2023-01-19T01:16:34;18.85;;;12.13;;
22634;SDS011;11484;50.858;4.384;2023-01-19T01:24:11;21.73;;;13.18;;
22634;SDS011;11484;50.858;4.384;2023-01-19T01:26:37;21.50;;;12.82;;
22634;SDS011;11484;50.858;4.384;2023-01-19T01:29:06;20.88;;;12.57;;
22634;SDS011;11484;50.858;4.384;2023-01-19T01:31:32;21.73;;;13.20;;
22634;SDS011;11484;50.858;4.384;2023-01-19T01:33:58;23.10;;;13.45;;
22634;SDS011;11484;50.858;4.384;2023-01-19T01:36:23;22.05;;;13.50;;
22634;SDS011;11484;50.858;4.384;2023-01-19T01:38:53;24.02;;;13.15;;
22634;SDS011;11484;50.858;4.384;2023-01-19T01:41:18;22.15;;;13.77;;
22634;SDS011;11484;50.858;4.384;2023-01-19T01:43:49;23.80;;;13.50;;
22634;SDS011;11484;50.858;4.384;2023-01-19T01:46:22;22.13;;;13.32;;
22634;SDS011;11484;50.858;4.384;2023-01-19T01:48:50;20.10;;;13.18;;
22634;SDS011;11484;50.858;4.384;2023-01-19T01:51:41;22.20;;;13.07;;
22634;SDS011;11484;50.858;4.384;2023-01-19T01:54:31;27.20;;;14.07;;
22634;SDS011;11484;50.858;4.384;2023-01-19T01:56:59;23.02;;;13.23;;
22634;SDS011;11484;50.858;4.384;2023-01-19T01:59:33;23.40;;;13.38;;
22634;SDS011;11484;50.858;4.384;2023-01-19T02:02:06;21.75;;;13.77;;
22634;SDS011;11484;50.858;4.384;2023-01-19T02:04:57;20.75;;;13.57;;
22634;SDS011;11484;50.858;4.384;2023-01-19T02:07:46;27.08;;;13.55;;
22634;SDS011;11484;50.858;4.384;2023-01-19T02:10:51;22.75;;;12.90;;
22634;SDS011;11484;50.858;4.384;2023-01-19T02:13:37;24.65;;;13.38;;
22634;SDS011;11484;50.858;4.384;2023-01-19T02:16:08;24.05;;;12.98;;
22634;SDS011;11484;50.858;4.384;2023-01-19T02:18:34;22.45;;;13.15;;
22634;SDS011;11484;50.858;4.384;2023-01-19T02:23:54;22.83;;;13.18;;
22634;SDS011;11484;50.858;4.384;2023-01-19T02:26:26;20.13;;;12.90;;
22634;SDS011;11484;50.858;4.384;2023-01-19T02:28:55;22.35;;;12.75;;
22634;SDS011;11484;50.858;4.384;2023-01-19T02:31:24;20.75;;;12.68;;
22634;SDS011;11484;50.858;4.384;2023-01-19T02:33:51;20.30;;;12.93;;
22634;SDS011;11484;50.858;4.384;2023-01-19T02:36:18;20.33;;;12.75;;
22634;SDS011;11484;50.858;4.384;2023-01-19T02:38:50;23.38;;;12.27;;
22634;SDS011;11484;50.858;4.384;2023-01-19T02:41:21;22.30;;;13.68;;
22634;SDS011;11484;50.858;4.384;2023-01-19T02:43:50;27.17;;;12.90;;
22634;SDS011;11484;50.858;4.384;2023-01-19T02:46:18;18.85;;;12.07;;
22634;SDS011;11484;50.858;4.384;2023-01-19T02:48:43;23.75;;;11.98;;
22634;SDS011;11484;50.858;4.384;2023-01-19T02:51:11;18.75;;;12.88;;
22634;SDS011;11484;50.858;4.384;2023-01-19T03:02:17;22.48;;;13.48;;
22634;SDS011;11484;50.858;4.384;2023-01-19T03:04:58;21.13;;;12.38;;
22634;SDS011;11484;50.858;4.384;2023-01-19T03:07:55;19.65;;;12.85;;
22634;SDS011;11484;50.858;4.384;2023-01-19T03:13:15;26.08;;;13.13;;
22634;SDS011;11484;50.858;4.384;2023-01-19T03:15:57;21.27;;;12.10;;
22634;SDS011;11484;50.858;4.384;2023-01-19T03:18:36;18.58;;;11.43;;
22634;SDS011;11484;50.858;4.384;2023-01-19T03:21:04;18.63;;;11.57;;
22634;SDS011;11484;50.858;4.384;2023-01-19T03:23:31;22.10;;;13.23;;
22634;SDS011;11484;50.858;4.384;2023-01-19T03:26:00;21.23;;;12.15;;
22634;SDS011;11484;50.858;4.384;2023-01-19T03:28:29;20.35;;;11.55;;
22634;SDS011;11484;50.858;4.384;2023-01-19T03:31:00;30.15;;;18.27;;
22634;SDS011;11484;50.858;4.384;2023-01-19T03:33:33;22.15;;;12.90;;
22634;SDS011;11484;50.858;4.384;2023-01-19T03:36:04;22.15;;;11.88;;
22634;SDS011;11484;50.858;4.384;2023-01-19T03:38:36;23.38;;;12.48;;
22634;SDS011;11484;50.858;4.384;2023-01-19T03:41:05;23.05;;;12.88;;
22634;SDS011;11484;50.858;4.384;2023-01-19T03:43:34;18.48;;;11.82;;
22634;SDS011;11484;50.858;4.384;2023-01-19T03:46:02;17.52;;;11.45;;
22634;SDS011;11484;50.858;4.384;2023-01-19T03:48:30;19.55;;;11.32;;
22634;SDS011;11484;50.858;4.384;2023-01-19T03:50:56;20.92;;;11.90;;
22634;SDS011;11484;50.858;4.384;2023-01-19T03:53:26;22.92;;;11.88;;
22634;SDS011;11484;50.858;4.384;2023-01-19T03:55:52;21.58;;;11.77;;
22634;SDS011;11484;50.858;4.384;2023-01-19T03:58:18;22.13;;;12.00;;
22634;SDS011;11484;50.858;4.384;2023-01-19T04:00:44;21.75;;;12.07;;
22634;SDS011;11484;50.858;4.384;2023-01-19T04:03:11;19.90;;;12.02;;
22634;SDS011;11484;50.858;4.384;2023-01-19T04:05:38;23.33;;;12.95;;
22634;SDS011;11484;50.858;4.384;2023-01-19T04:08:04;25.23;;;12.98;;
22634;SDS011;11484;50.858;4.384;2023-01-19T04:10:30;21.48;;;13.00;;
22634;SDS011;11484;50.858;4.384;2023-01-19T04:12:59;23.10;;;12.50;;
22634;SDS011;11484;50.858;4.384;2023-01-19T04:15:25;22.67;;;12.95;;
22634;SDS011;11484;50.858;4.384;2023-01-19T04:17:52;21.45;;;12.98;;
22634;SDS011;11484;50.858;4.384;2023-01-19T04:20:18;24.38;;;12.70;;
22634;SDS011;11484;50.858;4.384;2023-01-19T04:22:45;23.67;;;13.18;;
22634;SDS011;11484;50.858;4.384;2023-01-19T04:25:11;22.63;;;13.30;;
22634;SDS011;11484;50.858;4.384;2023-01-19T04:27:37;23.42;;;13.40;;
22634;SDS011;11484;50.858;4.384;2023-01-19T04:30:03;24.45;;;13.55;;
22634;SDS011;11484;50.858;4.384;2023-01-19T04:32:29;25.02;;;14.23;;
22634;SDS011;11484;50.858;4.384;2023-01-19T04:34:56;25.10;;;12.70;;
22634;SDS011;11484;50.858;4.384;2023-01-19T04:37:22;28.45;;;13.43;;
22634;SDS011;11484;50.858;4.384;2023-01-19T04:39:47;22.33;;;13.80;;
22634;SDS011;11484;50.858;4.384;2023-01-19T04:42:13;26.58;;;14.43;;
22634;SDS011;11484;50.858;4.384;2023-01-19T04:44:39;26.42;;;14.07;;
22634;SDS011;11484;50.858;4.384;2023-01-19T04:47:05;32.47;;;15.35;;
22634;SDS011;11484;50.858;4.384;2023-01-19T04:49:30;25.65;;;14.45;;
22634;SDS011;11484;50.858;4.384;2023-01-19T04:51:56;27.67;;;14.70;;
22634;SDS011;11484;50.858;4.384;2023-01-19T04:54:22;28.10;;;14.68;;
22634;SDS011;11484;50.858;4.384;2023-01-19T04:56:47;28.85;;;15.65;;
22634;SDS011;11484;50.858;4.384;2023-01-19T04:59:13;27.13;;;15.35;;
22634;SDS011;11484;50.858;4.384;2023-01-19T05:01:39;31.45;;;15.93;;
22634;SDS011;11484;50.858;4.384;2023-01-19T05:04:04;31.20;;;15.77;;
22634;SDS011;11484;50.858;4.384;2023-01-19T05:06:32;32.70;;;16.77;;
22634;SDS011;11484;50.858;4.384;2023-01-19T05:08:58;34.45;;;17.15;;
22634;SDS011;11484;50.858;4.384;2023-01-19T05:11:24;31.00;;;16.65;;
22634;SDS011;11484;50.858;4.384;2023-01-19T05:13:49;30.38;;;16.13;;
22634;SDS011;11484;50.858;4.384;2023-01-19T05:16:15;31.63;;;16.80;;
22634;SDS011;11484;50.858;4.384;2023-01-19T05:18:43;30.25;;;17.20;;
22634;SDS011;11484;50.858;4.384;2023-01-19T05:21:09;33.42;;;18.27;;
22634;SDS011;11484;50.858;4.384;2023-01-19T05:23:35;38.92;;;19.17;;
22634;SDS011;11484;50.858;4.384;2023-01-19T05:26:01;34.53;;;17.77;;
22634;SDS011;11484;50.858;4.384;2023-01-19T05:28:31;36.72;;;18.10;;
22634;SDS011;11484;50.858;4.384;2023-01-19T05:30:57;40.70;;;19.00;;
22634;SDS011;11484;50.858;4.384;2023-01-19T05:33:23;35.08;;;17.27;;
22634;SDS011;11484;50.858;4.384;2023-01-19T05:35:49;33.13;;;18.13;;
22634;SDS011;11484;50.858;4.384;2023-01-19T05:38:16;36.17;;;17.27;;
22634;SDS011;11484;50.858;4.384;2023-01-19T05:40:42;36.28;;;18.17;;
22634;SDS011;11484;50.858;4.384;2023-01-19T05:43:08;34.88;;;18.65;;
22634;SDS011;11484;50.858;4.384;2023-01-19T05:45:34;37.65;;;18.80;;
22634;SDS011;11484;50.858;4.384;2023-01-19T05:48:02;35.35;;;17.58;;
22634;SDS011;11484;50.858;4.384;2023-01-19T05:50:29;38.67;;;18.20;;
22634;SDS011;11484;50.858;4.384;2023-01-19T05:52:55;35.05;;;18.17;;
22634;SDS011;11484;50.858;4.384;2023-01-19T05:55:21;34.60;;;18.35;;
22634;SDS011;11484;50.858;4.384;2023-01-19T05:57:47;40.92;;;17.92;;
22634;SDS011;11484;50.858;4.384;2023-01-19T06:00:14;35.10;;;18.52;;
22634;SDS011;11484;50.858;4.384;2023-01-19T06:02:39;41.22;;;18.33;;
22634;SDS011;11484;50.858;4.384;2023-01-19T06:05:05;31.73;;;16.95;;
22634;SDS011;11484;50.858;4.384;2023-01-19T06:07:31;36.95;;;18.08;;
22634;SDS011;11484;50.858;4.384;2023-01-19T06:09:57;32.72;;;16.45;;
22634;SDS011;11484;50.858;4.384;2023-01-19T06:12:23;29.67;;;16.73;;
22634;SDS011;11484;50.858;4.384;2023-01-19T06:14:48;35.63;;;17.05;;
22634;SDS011;11484;50.858;4.384;2023-01-19T06:17:15;33.92;;;16.70;;
22634;SDS011;11484;50.858;4.384;2023-01-19T06:19:41;33.60;;;16.73;;
22634;SDS011;11484;50.858;4.384;2023-01-19T06:22:07;35.75;;;17.20;;
22634;SDS011;11484;50.858;4.384;2023-01-19T06:24:33;33.28;;;17.30;;
22634;SDS011;11484;50.858;4.384;2023-01-19T06:26:58;32.72;;;16.27;;
22634;SDS011;11484;50.858;4.384;2023-01-19T06:29:28;34.53;;;16.33;;
22634;SDS011;11484;50.858;4.384;2023-01-19T06:31:53;34.22;;;16.30;;
22634;SDS011;11484;50.858;4.384;2023-01-19T06:34:19;36.05;;;16.40;;
22634;SDS011;11484;50.858;4.384;2023-01-19T06:36:45;34.35;;;17.38;;
22634;SDS011;11484;50.858;4.384;2023-01-19T06:39:11;34.03;;;16.73;;
22634;SDS011;11484;50.858;4.384;2023-01-19T06:41:37;31.95;;;17.17;;
22634;SDS011;11484;50.858;4.384;2023-01-19T06:44:03;31.23;;;16.48;;
22634;SDS011;11484;50.858;4.384;2023-01-19T06:46:30;33.38;;;16.52;;
22634;SDS011;11484;50.858;4.384;2023-01-19T06:48:56;35.92;;;17.20;;
22634;SDS011;11484;50.858;4.384;2023-01-19T06:51:22;32.17;;;16.98;;
22634;SDS011;11484;50.858;4.384;2023-01-19T06:53:48;33.10;;;17.52;;
22634;SDS011;11484;50.858;4.384;2023-01-19T06:56:14;33.17;;;17.67;;
22634;SDS011;11484;50.858;4.384;2023-01-19T06:58:40;33.22;;;16.73;;
22634;SDS011;11484;50.858;4.384;2023-01-19T07:01:06;31.38;;;16.75;;
22634;SDS011;11484;50.858;4.384;2023-01-19T07:03:33;32.83;;;17.10;;
22634;SDS011;11484;50.858;4.384;2023-01-19T07:06:00;34.78;;;17.17;;
22634;SDS011;11484;50.858;4.384;2023-01-19T07:08:29;32.10;;;16.65;;
22634;SDS011;11484;50.858;4.384;2023-01-19T07:10:59;33.08;;;17.50;;
22634;SDS011;11484;50.858;4.384;2023-01-19T07:13:26;35.88;;;17.40;;
22634;SDS011;11484;50.858;4.384;2023-01-19T07:15:52;32.53;;;17.60;;
22634;SDS011;11484;50.858;4.384;2023-01-19T07:18:18;29.90;;;15.65;;
22634;SDS011;11484;50.858;4.384;2023-01-19T07:20:44;33.95;;;16.95;;
22634;SDS011;11484;50.858;4.384;2023-01-19T07:23:11;30.35;;;16.70;;
22634;SDS011;11484;50.858;4.384;2023-01-19T07:25:37;32.15;;;16.02;;
22634;SDS011;11484;50.858;4.384;2023-01-19T07:28:03;36.83;;;18.15;;
22634;SDS011;11484;50.858;4.384;2023-01-19T07:30:29;29.80;;;16.50;;
22634;SDS011;11484;50.858;4.384;2023-01-19T07:32:55;34.17;;;16.88;;
22634;SDS011;11484;50.858;4.384;2023-01-19T07:35:21;38.10;;;17.08;;
22634;SDS011;11484;50.858;4.384;2023-01-19T07:37:48;34.58;;;17.10;;
22634;SDS011;11484;50.858;4.384;2023-01-19T07:40:14;32.40;;;15.77;;
22634;SDS011;11484;50.858;4.384;2023-01-19T07:42:44;33.30;;;16.50;;
22634;SDS011;11484;50.858;4.384;2023-01-19T07:45:12;32.72;;;15.82;;
22634;SDS011;11484;50.858;4.384;2023-01-19T07:47:41;35.95;;;16.35;;
22634;SDS011;11484;50.858;4.384;2023-01-19T07:50:25;35.08;;;19.30;;
22634;SDS011;11484;50.858;4.384;2023-01-19T07:52:53;37.58;;;17.30;;
22634;SDS011;11484;50.858;4.384;2023-01-19T07:55:20;35.80;;;17.35;;
22634;SDS011;11484;50.858;4.384;2023-01-19T07:57:50;33.65;;;16.10;;
22634;SDS011;11484;50.858;4.384;2023-01-19T08:00:19;34.73;;;17.47;;
22634;SDS011;11484;50.858;4.384;2023-01-19T08:02:48;33.22;;;15.52;;
22634;SDS011;11484;50.858;4.384;2023-01-19T08:05:22;34.25;;;16.55;;
22634;SDS011;11484;50.858;4.384;2023-01-19T08:07:48;29.73;;;16.15;;
22634;SDS011;11484;50.858;4.384;2023-01-19T08:10:14;33.72;;;16.80;;
22634;SDS011;11484;50.858;4.384;2023-01-19T08:12:41;28.80;;;16.30;;
22634;SDS011;11484;50.858;4.384;2023-01-19T08:15:07;35.28;;;16.05;;
22634;SDS011;11484;50.858;4.384;2023-01-19T08:17:34;31.88;;;16.90;;
22634;SDS011;11484;50.858;4.384;2023-01-19T08:20:00;36.42;;;17.02;;
22634;SDS011;11484;50.858;4.384;2023-01-19T08:22:26;30.85;;;16.00;;
22634;SDS011;11484;50.858;4.384;2023-01-19T08:24:52;33.53;;;17.00;;
22634;SDS011;11484;50.858;4.384;2023-01-19T08:27:18;37.53;;;16.02;;
22634;SDS011;11484;50.858;4.384;2023-01-19T08:29:45;33.05;;;16.25;;
22634;SDS011;11484;50.858;4.384;2023-01-19T08:32:10;33.35;;;16.23;;
22634;SDS011;11484;50.858;4.384;2023-01-19T08:34:36;34.85;;;16.63;;
22634;SDS011;11484;50.858;4.384;2023-01-19T08:37:02;29.70;;;15.93;;
22634;SDS011;11484;50.858;4.384;2023-01-19T08:39:27;33.78;;;16.58;;
22634;SDS011;11484;50.858;4.384;2023-01-19T08:41:53;35.45;;;17.30;;
22634;SDS011;11484;50.858;4.384;2023-01-19T08:44:19;34.60;;;16.15;;
22634;SDS011;11484;50.858;4.384;2023-01-19T08:46:45;31.90;;;16.88;;
22634;SDS011;11484;50.858;4.384;2023-01-19T08:49:11;40.50;;;17.08;;
22634;SDS011;11484;50.858;4.384;2023-01-19T08:51:37;30.27;;;16.98;;
22634;SDS011;11484;50.858;4.384;2023-01-19T08:54:03;31.40;;;16.75;;
22634;SDS011;11484;50.858;4.384;2023-01-19T08:56:28;31.25;;;16.33;;
22634;SDS011;11484;50.858;4.384;2023-01-19T08:58:54;37.95;;;18.05;;
22634;SDS011;11484;50.858;4.384;2023-01-19T09:01:20;38.50;;;16.73;;
22634;SDS011;11484;50.858;4.384;2023-01-19T09:03:46;31.75;;;15.75;;
22634;SDS011;11484;50.858;4.384;2023-01-19T09:06:15;35.78;;;16.58;;
22634;SDS011;11484;50.858;4.384;2023-01-19T09:08:42;31.00;;;16.80;;
22634;SDS011;11484;50.858;4.384;2023-01-19T09:11:09;34.47;;;16.10;;
22634;SDS011;11484;50.858;4.384;2023-01-19T09:13:35;40.00;;;17.27;;
22634;SDS011;11484;50.858;4.384;2023-01-19T09:16:01;39.40;;;16.52;;
22634;SDS011;11484;50.858;4.384;2023-01-19T09:18:28;34.58;;;16.42;;
22634;SDS011;11484;50.858;4.384;2023-01-19T09:20:55;32.10;;;15.90;;
22634;SDS011;11484;50.858;4.384;2023-01-19T09:23:22;32.75;;;15.23;;
22634;SDS011;11484;50.858;4.384;2023-01-19T09:25:54;31.98;;;15.77;;
22634;SDS011;11484;50.858;4.384;2023-01-19T09:28:21;33.15;;;15.23;;
22634;SDS011;11484;50.858;4.384;2023-01-19T09:30:46;32.10;;;15.32;;
22634;SDS011;11484;50.858;4.384;2023-01-19T09:33:13;31.92;;;15.02;;
22634;SDS011;11484;50.858;4.384;2023-01-19T09:35:40;32.92;;;15.73;;
22634;SDS011;11484;50.858;4.384;2023-01-19T09:38:07;33.30;;;14.80;;
22634;SDS011;11484;50.858;4.384;2023-01-19T09:40:46;36.17;;;15.98;;
22634;SDS011;11484;50.858;4.384;2023-01-19T09:43:19;34.15;;;16.20;;
22634;SDS011;11484;50.858;4.384;2023-01-19T09:46:11;35.95;;;16.75;;
22634;SDS011;11484;50.858;4.384;2023-01-19T09:48:48;31.15;;;15.27;;
22634;SDS011;11484;50.858;4.384;2023-01-19T09:51:24;32.20;;;14.93;;
22634;SDS011;11484;50.858;4.384;2023-01-19T09:56:41;31.85;;;14.27;;
22634;SDS011;11484;50.858;4.384;2023-01-19T10:02:02;31.25;;;14.48;;
22634;SDS011;11484;50.858;4.384;2023-01-19T10:10:12;31.85;;;14.98;;
22634;SDS011;11484;50.858;4.384;2023-01-19T10:25:54;30.48;;;14.23;;
22634;SDS011;11484;50.858;4.384;2023-01-19T10:28:22;28.80;;;13.68;;
22634;SDS011;11484;50.858;4.384;2023-01-19T10:30:49;35.33;;;14.52;;
22634;SDS011;11484;50.858;4.384;2023-01-19T10:33:18;34.05;;;14.20;;
22634;SDS011;11484;50.858;4.384;2023-01-19T10:35:43;25.02;;;12.85;;
22634;SDS011;11484;50.858;4.384;2023-01-19T10:38:12;27.55;;;13.27;;
22634;SDS011;11484;50.858;4.384;2023-01-19T10:40:51;29.92;;;13.88;;
22634;SDS011;11484;50.858;4.384;2023-01-19T10:43:42;33.92;;;16.63;;
22634;SDS011;11484;50.858;4.384;2023-01-19T10:48:49;30.95;;;13.32;;
22634;SDS011;11484;50.858;4.384;2023-01-19T10:51:17;29.02;;;13.20;;
22634;SDS011;11484;50.858;4.384;2023-01-19T10:53:52;38.15;;;15.05;;
22634;SDS011;11484;50.858;4.384;2023-01-19T10:56:21;28.73;;;13.32;;
22634;SDS011;11484;50.858;4.384;2023-01-19T10:58:49;28.13;;;12.90;;
22634;SDS011;11484;50.858;4.384;2023-01-19T11:01:23;29.13;;;12.75;;
22634;SDS011;11484;50.858;4.384;2023-01-19T11:03:50;32.25;;;14.63;;
22634;SDS011;11484;50.858;4.384;2023-01-19T11:06:18;28.05;;;12.93;;
22634;SDS011;11484;50.858;4.384;2023-01-19T11:08:49;28.45;;;14.30;;
22634;SDS011;11484;50.858;4.384;2023-01-19T11:11:17;35.33;;;15.85;;
22634;SDS011;11484;50.858;4.384;2023-01-19T11:14:09;29.20;;;14.13;;
22634;SDS011;11484;50.858;4.384;2023-01-19T11:19:04;37.20;;;14.88;;
22634;SDS011;11484;50.858;4.384;2023-01-19T11:21:31;30.90;;;15.60;;
22634;SDS011;11484;50.858;4.384;2023-01-19T11:23:58;35.20;;;15.90;;
22634;SDS011;11484;50.858;4.384;2023-01-19T11:28:55;31.92;;;16.30;;
22634;SDS011;11484;50.858;4.384;2023-01-19T11:34:01;32.20;;;16.00;;
22634;SDS011;11484;50.858;4.384;2023-01-19T11:36:54;32.92;;;14.65;;
22634;SDS011;11484;50.858;4.384;2023-01-19T11:39:23;29.65;;;15.05;;
22634;SDS011;11484;50.858;4.384;2023-01-19T11:41:56;28.05;;;13.50;;
22634;SDS011;11484;50.858;4.384;2023-01-19T11:44:29;26.95;;;14.93;;
22634;SDS011;11484;50.858;4.384;2023-01-19T11:46:58;29.25;;;14.65;;
22634;SDS011;11484;50.858;4.384;2023-01-19T11:57:56;30.33;;;14.90;;
22634;SDS011;11484;50.858;4.384;2023-01-19T12:03:13;29.35;;;15.38;;
22634;SDS011;11484;50.858;4.384;2023-01-19T12:05:45;28.63;;;14.82;;
22634;SDS011;11484;50.858;4.384;2023-01-19T12:08:24;30.52;;;14.73;;
22634;SDS011;11484;50.858;4.384;2023-01-19T12:10:54;28.48;;;14.70;;
22634;SDS011;11484;50.858;4.384;2023-01-19T12:13:24;30.55;;;15.23;;
22634;SDS011;11484;50.858;4.384;2023-01-19T12:18:32;30.38;;;14.70;;
22634;SDS011;11484;50.858;4.384;2023-01-19T12:21:11;28.63;;;14.32;;
22634;SDS011;11484;50.858;4.384;2023-01-19T12:26:23;27.65;;;14.85;;
22634;SDS011;11484;50.858;4.384;2023-01-19T12:32:15;27.27;;;13.75;;
22634;SDS011;11484;50.858;4.384;2023-01-19T12:39:54;25.25;;;13.07;;
22634;SDS011;11484;50.858;4.384;2023-01-19T12:42:22;25.35;;;12.98;;
22634;SDS011;11484;50.858;4.384;2023-01-19T12:44:48;24.40;;;13.35;;
22634;SDS011;11484;50.858;4.384;2023-01-19T12:47:52;28.00;;;13.52;;
22634;SDS011;11484;50.858;4.384;2023-01-19T12:50:20;22.23;;;12.95;;
22634;SDS011;11484;50.858;4.384;2023-01-19T12:52:56;21.25;;;13.25;;
22634;SDS011;11484;50.858;4.384;2023-01-19T12:55:29;25.70;;;12.77;;
22634;SDS011;11484;50.858;4.384;2023-01-19T12:58:12;27.17;;;13.20;;
22634;SDS011;11484;50.858;4.384;2023-01-19T13:00:48;25.70;;;13.02;;
22634;SDS011;11484;50.858;4.384;2023-01-19T13:08:54;26.88;;;14.50;;
22634;SDS011;11484;50.858;4.384;2023-01-19T13:11:22;22.90;;;12.65;;
22634;SDS011;11484;50.858;4.384;2023-01-19T13:18:56;24.90;;;13.18;;
22634;SDS011;11484;50.858;4.384;2023-01-19T13:27:09;24.08;;;12.85;;
22634;SDS011;11484;50.858;4.384;2023-01-19T13:29:38;24.25;;;12.48;;
22634;SDS011;11484;50.858;4.384;2023-01-19T13:34:43;22.92;;;13.30;;
22634;SDS011;11484;50.858;4.384;2023-01-19T13:37:16;24.95;;;12.52;;
22634;SDS011;11484;50.858;4.384;2023-01-19T13:39:44;22.42;;;12.35;;
22634;SDS011;11484;50.858;4.384;2023-01-19T13:44:57;23.30;;;12.25;;
22634;SDS011;11484;50.858;4.384;2023-01-19T13:47:41;22.70;;;11.48;;
22634;SDS011;11484;50.858;4.384;2023-01-19T13:50:22;21.58;;;11.60;;
22634;SDS011;11484;50.858;4.384;2023-01-19T13:52:48;21.42;;;11.57;;
22634;SDS011;11484;50.858;4.384;2023-01-19T13:55:18;23.05;;;11.13;;
22634;SDS011;11484;50.858;4.384;2023-01-19T13:57:45;18.67;;;10.40;;
22634;SDS011;11484;50.858;4.384;2023-01-19T14:02:59;27.35;;;12.80;;
22634;SDS011;11484;50.858;4.384;2023-01-19T14:05:35;21.65;;;11.55;;
22634;SDS011;11484;50.858;4.384;2023-01-19T14:10:38;18.90;;;11.20;;
22634;SDS011;11484;50.858;4.384;2023-01-19T14:13:22;21.23;;;10.60;;
22634;SDS011;11484;50.858;4.384;2023-01-19T14:16:13;22.83;;;11.65;;
22634;SDS011;11484;50.858;4.384;2023-01-19T14:18:40;19.30;;;10.30;;
22634;SDS011;11484;50.858;4.384;2023-01-19T14:21:07;19.30;;;11.10;;
22634;SDS011;11484;50.858;4.384;2023-01-19T14:29:26;18.42;;;10.95;;
22634;SDS011;11484;50.858;4.384;2023-01-19T14:37:25;18.42;;;11.07;;
22634;SDS011;11484;50.858;4.384;2023-01-19T14:45:28;18.83;;;10.93;;
22634;SDS011;11484;50.858;4.384;2023-01-19T14:48:03;18.30;;;10.27;;
22634;SDS011;11484;50.858;4.384;2023-01-19T14:50:42;20.15;;;11.00;;
22634;SDS011;11484;50.858;4.384;2023-01-19T14:55:46;21.40;;;10.60;;
22634;SDS011;11484;50.858;4.384;2023-01-19T14:58:16;21.58;;;11.43;;
22634;SDS011;11484;50.858;4.384;2023-01-19T15:00:43;22.40;;;11.10;;
22634;SDS011;11484;50.858;4.384;2023-01-19T15:03:11;23.60;;;11.57;;
22634;SDS011;11484;50.858;4.384;2023-01-19T15:05:39;25.23;;;12.55;;
22634;SDS011;11484;50.858;4.384;2023-01-19T15:08:07;22.95;;;11.45;;
22634;SDS011;11484;50.858;4.384;2023-01-19T15:10:57;19.50;;;11.20;;
22634;SDS011;11484;50.858;4.384;2023-01-19T15:13:33;20.98;;;11.07;;
22634;SDS011;11484;50.858;4.384;2023-01-19T15:15:59;20.58;;;11.73;;
22634;SDS011;11484;50.858;4.384;2023-01-19T15:18:25;20.45;;;11.70;;
22634;SDS011;11484;50.858;4.384;2023-01-19T15:20:54;21.77;;;11.65;;
22634;SDS011;11484;50.858;4.384;2023-01-19T15:23:26;17.98;;;10.68;;
22634;SDS011;11484;50.858;4.384;2023-01-19T15:25:58;24.90;;;12.93;;
22634;SDS011;11484;50.858;4.384;2023-01-19T15:28:28;22.80;;;12.23;;
22634;SDS011;11484;50.858;4.384;2023-01-19T15:30:54;23.48;;;12.52;;
22634;SDS011;11484;50.858;4.384;2023-01-19T15:33:22;25.65;;;12.93;;
22634;SDS011;11484;50.858;4.384;2023-01-19T15:35:50;46.72;;;17.05;;
22634;SDS011;11484;50.858;4.384;2023-01-19T15:38:17;24.45;;;12.35;;
22634;SDS011;11484;50.858;4.384;2023-01-19T15:40:42;24.60;;;11.73;;
22634;SDS011;11484;50.858;4.384;2023-01-19T15:43:09;23.67;;;12.13;;
22634;SDS011;11484;50.858;4.384;2023-01-19T15:45:58;22.48;;;12.52;;
22634;SDS011;11484;50.858;4.384;2023-01-19T15:48:24;26.33;;;12.68;;
22634;SDS011;11484;50.858;4.384;2023-01-19T15:50:50;21.60;;;11.57;;
22634;SDS011;11484;50.858;4.384;2023-01-19T15:53:16;29.05;;;14.32;;
22634;SDS011;11484;50.858;4.384;2023-01-19T15:55:47;19.55;;;10.65;;
22634;SDS011;11484;50.858;4.384;2023-01-19T15:58:13;19.93;;;11.77;;
22634;SDS011;11484;50.858;4.384;2023-01-19T16:00:39;22.00;;;11.07;;
22634;SDS011;11484;50.858;4.384;2023-01-19T16:03:04;21.08;;;10.38;;
22634;SDS011;11484;50.858;4.384;2023-01-19T16:05:30;20.60;;;11.70;;
22634;SDS011;11484;50.858;4.384;2023-01-19T16:07:56;22.33;;;12.38;;
22634;SDS011;11484;50.858;4.384;2023-01-19T16:10:22;19.88;;;11.18;;
22634;SDS011;11484;50.858;4.384;2023-01-19T16:12:48;22.58;;;11.10;;
22634;SDS011;11484;50.858;4.384;2023-01-19T16:15:14;20.02;;;11.77;;
22634;SDS011;11484;50.858;4.384;2023-01-19T16:17:41;24.25;;;11.68;;
22634;SDS011;11484;50.858;4.384;2023-01-19T16:20:07;22.02;;;11.63;;
22634;SDS011;11484;50.858;4.384;2023-01-19T16:22:34;23.25;;;12.10;;
22634;SDS011;11484;50.858;4.384;2023-01-19T16:25:00;21.63;;;11.23;;
22634;SDS011;11484;50.858;4.384;2023-01-19T16:27:27;19.45;;;11.15;;
22634;SDS011;11484;50.858;4.384;2023-01-19T16:29:53;23.10;;;11.88;;
22634;SDS011;11484;50.858;4.384;2023-01-19T16:32:19;23.08;;;11.10;;
22634;SDS011;11484;50.858;4.384;2023-01-19T16:34:45;19.67;;;10.63;;
22634;SDS011;11484;50.858;4.384;2023-01-19T16:37:10;22.27;;;11.20;;